Robeson, Pennsylvania
Current Conditions -  °F | °C
As of 11:54 AM on Tuesday 27 Jan 2015 (Local Time) from KRDG Reporting Station
Broken Clouds Broken Clouds  
Wind Chill: 17°   Ceiling: 7000
Heat Index: 28°   Visibility: 10mi
Dew Point: 14°   Wind: 13mph
Humidity: 56%   Direction: 330°NNW
Pressure: 29.78"   Gusts: 21mph
Location:  40.2313°N, 75.8555°W
Report Text: KRDG 271654Z 33011G18KT 10SM BKN070 M02/M10 A2978 RMK AO2 SLP093 T10221100
Loading
Personal Weather Stations






























Interactive Weather Map New forecast layout! Learn more

10-Day Weather Forecast

Advertisements
Track Severe Weather on mobile